createdAt,value
2023-04-21T00:01:49.304Z,22.36
2023-04-21T00:04:15.914Z,22.38
2023-04-21T00:06:42.274Z,22.34
2023-04-21T00:09:08.649Z,22.34
2023-04-21T00:11:34.982Z,22.34
2023-04-21T00:14:01.298Z,22.36
2023-04-21T00:16:27.727Z,22.34
2023-04-21T00:18:54.076Z,22.36
2023-04-21T00:21:20.435Z,22.34
2023-04-21T00:23:46.756Z,22.25
2023-04-21T00:26:13.073Z,22.34
2023-04-21T00:28:39.423Z,22.34
2023-04-21T00:31:05.848Z,22.28
2023-04-21T00:33:32.342Z,22.26
2023-04-21T00:35:58.656Z,22.26
2023-04-21T00:38:24.966Z,22.27
2023-04-21T00:40:51.297Z,22.33
2023-04-21T00:43:17.614Z,22.28
2023-04-21T00:45:43.927Z,22.31
2023-04-21T00:48:10.244Z,22.30
2023-04-21T00:50:36.570Z,22.28
2023-04-21T00:53:02.926Z,22.24
2023-04-21T00:55:29.224Z,22.27
2023-04-21T00:57:55.611Z,22.30
2023-04-21T01:00:21.936Z,22.25
2023-04-21T01:02:48.477Z,22.28
2023-04-21T01:05:14.938Z,22.28
2023-04-21T01:07:41.240Z,22.28
2023-04-21T01:10:07.546Z,22.23
2023-04-21T01:12:33.847Z,22.28
2023-04-21T01:15:00.211Z,22.24
2023-04-21T01:17:26.531Z,22.29
2023-04-21T01:19:52.913Z,22.25
2023-04-21T01:22:19.341Z,22.24
2023-04-21T01:24:45.664Z,22.27
2023-04-21T01:27:12.019Z,22.26
2023-04-21T01:29:38.379Z,22.27
2023-04-21T01:32:04.725Z,22.28
2023-04-21T01:34:31.062Z,22.24
2023-04-21T01:36:57.380Z,22.18
2023-04-21T01:39:23.764Z,22.20
2023-04-21T01:41:50.112Z,22.20
2023-04-21T01:44:16.471Z,22.19
2023-04-21T01:46:42.857Z,22.20
2023-04-21T01:49:09.222Z,22.20
2023-04-21T01:51:35.581Z,22.20
2023-04-21T01:54:01.951Z,22.23
2023-04-21T01:56:28.329Z,22.22
2023-04-21T01:58:54.772Z,22.21
2023-04-21T02:01:21.129Z,22.25
2023-04-21T02:03:47.701Z,22.20
2023-04-21T02:06:14.183Z,22.23
2023-04-21T02:08:40.505Z,22.18
2023-04-21T02:11:06.851Z,22.15
2023-04-21T02:13:33.201Z,22.18
2023-04-21T02:16:10.021Z,22.23
2023-04-21T02:18:38.834Z,22.23
2023-04-21T02:21:05.146Z,22.17
2023-04-21T02:23:31.471Z,22.22
2023-04-21T02:25:57.820Z,22.20
2023-04-21T02:28:24.170Z,22.19
2023-04-21T02:30:50.627Z,22.20
2023-04-21T02:33:16.993Z,22.19
2023-04-21T02:35:43.367Z,22.13
2023-04-21T02:38:09.841Z,22.14
2023-04-21T02:40:36.241Z,22.17
2023-04-21T02:43:02.565Z,22.15
2023-04-21T02:45:28.930Z,22.18
2023-04-21T02:47:55.357Z,22.15
2023-04-21T02:50:21.728Z,22.15
2023-04-21T02:52:48.035Z,22.14
2023-04-21T02:55:14.341Z,22.11
2023-04-21T02:57:40.689Z,22.13
2023-04-21T03:00:07.010Z,22.18
2023-04-21T03:02:33.472Z,22.15
2023-04-21T03:04:59.867Z,22.12
2023-04-21T03:07:26.345Z,22.13
2023-04-21T03:09:52.698Z,22.10
2023-04-21T03:12:19.102Z,22.10
2023-04-21T03:14:45.491Z,22.10
2023-04-21T03:17:11.876Z,22.16
2023-04-21T03:19:38.231Z,22.12
2023-04-21T03:22:04.569Z,22.09
2023-04-21T03:24:30.878Z,22.13
2023-04-21T03:26:57.243Z,22.17
2023-04-21T03:29:23.589Z,22.17
2023-04-21T03:31:49.969Z,22.07
2023-04-21T03:34:16.322Z,22.09
2023-04-21T03:36:42.717Z,22.14
2023-04-21T03:39:19.378Z,22.12
2023-04-21T03:41:46.618Z,22.14
2023-04-21T03:44:12.918Z,22.12
2023-04-21T03:46:39.218Z,22.15
2023-04-21T03:49:05.555Z,22.12
2023-04-21T03:51:31.924Z,22.12
2023-04-21T03:53:58.301Z,22.12
2023-04-21T03:56:24.620Z,22.06
2023-04-21T03:58:51.002Z,22.10
2023-04-21T04:01:17.315Z,22.11
2023-04-21T04:03:43.697Z,22.07
2023-04-21T04:06:10.207Z,22.12
2023-04-21T04:08:36.530Z,22.08
2023-04-21T04:11:02.904Z,22.06
2023-04-21T04:13:29.294Z,22.08
2023-04-21T04:15:55.681Z,22.04
2023-04-21T04:18:22.023Z,22.01
2023-04-21T04:20:48.322Z,22.09
2023-04-21T04:23:14.677Z,22.06
2023-04-21T04:25:40.984Z,22.10
2023-04-21T04:28:07.296Z,22.07
2023-04-21T04:30:33.631Z,22.10
2023-04-21T04:32:59.953Z,22.08
2023-04-21T04:35:26.384Z,22.09
2023-04-21T04:37:52.775Z,22.02
2023-04-21T04:40:19.092Z,22.06
2023-04-21T04:42:45.399Z,22.05
2023-04-21T04:45:11.756Z,22.09
2023-04-21T04:47:38.132Z,22.08
2023-04-21T04:50:04.528Z,22.11
2023-04-21T04:52:30.896Z,22.05
2023-04-21T04:54:57.256Z,22.04
2023-04-21T04:57:23.630Z,22.09
2023-04-21T04:59:50.028Z,22.06
2023-04-21T05:02:16.503Z,22.07
2023-04-21T05:04:43.132Z,22.07
2023-04-21T05:07:09.548Z,22.07
2023-04-21T05:09:35.981Z,22.04
2023-04-21T05:12:02.386Z,22.03
2023-04-21T05:14:28.843Z,21.99
2023-04-21T05:16:55.275Z,21.99
2023-04-21T05:19:21.721Z,21.92
2023-04-21T05:21:48.111Z,22.02
2023-04-21T05:24:14.534Z,22.04
2023-04-21T05:26:40.898Z,22.02
2023-04-21T05:29:07.228Z,22.04
2023-04-21T05:31:33.672Z,22.02
2023-04-21T05:34:00.005Z,22.03
2023-04-21T05:36:26.366Z,22.01
2023-04-21T05:38:52.728Z,21.99
2023-04-21T05:41:19.105Z,22.02
2023-04-21T05:43:45.531Z,22.07
2023-04-21T05:46:11.912Z,22.00
2023-04-21T05:48:38.311Z,22.07
2023-04-21T05:51:04.641Z,22.06
2023-04-21T05:53:30.954Z,22.03
2023-04-21T05:55:57.260Z,22.00
2023-04-21T05:58:23.561Z,22.04
2023-04-21T06:00:49.882Z,22.01
2023-04-21T06:03:16.454Z,21.97
2023-04-21T06:05:42.910Z,21.98
2023-04-21T06:08:09.337Z,22.02
2023-04-21T06:10:35.645Z,21.95
2023-04-21T06:13:01.990Z,21.95
2023-04-21T06:15:28.349Z,22.01
2023-04-21T06:17:54.706Z,21.98
2023-04-21T06:20:21.032Z,22.04
2023-04-21T06:22:47.331Z,22.04
2023-04-21T06:25:13.724Z,22.08
2023-04-21T06:27:40.100Z,22.13
2023-04-21T06:30:06.473Z,22.08
2023-04-21T06:32:32.805Z,22.08
2023-04-21T06:34:59.199Z,22.05
2023-04-21T06:37:25.533Z,22.06
2023-04-21T06:39:51.903Z,22.06
2023-04-21T06:42:18.209Z,22.05
2023-04-21T06:44:44.516Z,22.01
2023-04-21T06:47:10.885Z,21.99
2023-04-21T06:49:37.316Z,22.02
2023-04-21T06:52:03.651Z,22.03
2023-04-21T06:54:29.952Z,22.09
2023-04-21T06:56:56.288Z,22.00
2023-04-21T06:59:22.824Z,22.03
2023-04-21T07:01:49.299Z,22.04
2023-04-21T07:04:15.715Z,22.04
2023-04-21T07:06:42.036Z,22.05
2023-04-21T07:09:08.413Z,22.05
2023-04-21T07:11:34.782Z,22.13
2023-04-21T07:14:01.134Z,22.09
2023-04-21T07:16:27.532Z,22.04
2023-04-21T07:18:55.691Z,22.09
2023-04-21T07:21:23.055Z,22.03
2023-04-21T07:23:49.359Z,22.06
2023-04-21T07:26:15.664Z,22.03
2023-04-21T07:28:42.015Z,22.01
2023-04-21T07:31:08.417Z,22.01
2023-04-21T07:33:34.910Z,22.01
2023-04-21T07:36:01.221Z,22.01
2023-04-21T07:38:27.534Z,22.03
2023-04-21T07:40:53.892Z,22.09
2023-04-21T07:43:20.217Z,22.04
2023-04-21T07:45:46.605Z,22.09
2023-04-21T07:48:13.052Z,22.03
2023-04-21T07:50:39.421Z,22.05
2023-04-21T07:53:05.756Z,22.06
2023-04-21T07:55:32.501Z,22.05
2023-04-21T07:57:58.903Z,22.07
2023-04-21T08:00:25.439Z,22.16
2023-04-21T08:02:51.926Z,22.46
2023-04-21T08:05:18.563Z,22.22
2023-04-21T08:07:44.993Z,22.16
2023-04-21T08:10:11.351Z,22.22
2023-04-21T08:12:37.828Z,22.46
2023-04-21T08:15:04.215Z,22.38
2023-04-21T08:17:30.666Z,22.20
2023-04-21T08:19:59.080Z,22.13
2023-04-21T08:22:26.002Z,22.15
2023-04-21T08:24:52.359Z,22.03
2023-04-21T08:27:18.712Z,22.11
2023-04-21T08:29:45.090Z,22.13
2023-04-21T08:32:11.517Z,22.13
2023-04-21T08:34:37.932Z,22.11
2023-04-21T08:37:04.292Z,22.16
2023-04-21T08:39:30.637Z,22.14
2023-04-21T08:41:57.393Z,22.13
2023-04-21T08:44:23.741Z,22.27
2023-04-21T08:46:50.100Z,22.29
2023-04-21T08:49:16.763Z,22.29
2023-04-21T08:51:43.142Z,22.23
2023-04-21T08:54:09.459Z,22.15
2023-04-21T08:56:35.826Z,22.11
2023-04-21T08:59:02.256Z,22.14
2023-04-21T09:01:28.661Z,22.21
2023-04-21T09:03:55.322Z,22.17
2023-04-21T09:06:22.175Z,22.20
2023-04-21T09:08:48.651Z,22.13
2023-04-21T09:11:15.013Z,22.12
2023-04-21T09:13:41.356Z,22.14
2023-04-21T09:16:08.660Z,22.21
2023-04-21T09:18:35.112Z,22.18
2023-04-21T09:21:01.464Z,22.20
2023-04-21T09:23:27.814Z,22.17
2023-04-21T09:25:54.131Z,22.18
2023-04-21T09:28:20.447Z,22.39
2023-04-21T09:30:46.869Z,22.35
2023-04-21T09:33:27.027Z,22.24
2023-04-21T09:35:55.717Z,22.08
2023-04-21T09:38:22.083Z,22.07
2023-04-21T09:40:48.386Z,22.05
2023-04-21T09:43:14.768Z,22.10
2023-04-21T09:45:41.158Z,22.08
2023-04-21T09:48:07.541Z,22.08
2023-04-21T09:51:07.553Z,22.10
2023-04-21T09:53:20.200Z,22.12
2023-04-21T09:55:46.567Z,22.10
2023-04-21T09:58:12.941Z,22.16
2023-04-21T10:00:39.399Z,22.13
2023-04-21T10:03:05.991Z,22.12
2023-04-21T10:05:32.529Z,22.08
2023-04-21T10:07:58.909Z,22.18
2023-04-21T10:10:25.240Z,22.11
2023-04-21T10:12:51.623Z,22.13
2023-04-21T10:15:18.016Z,22.22
2023-04-21T10:17:44.412Z,22.12
2023-04-21T10:20:10.781Z,22.04
2023-04-21T10:22:37.198Z,22.08
2023-04-21T10:25:03.550Z,22.03
2023-04-21T10:27:29.918Z,22.07
2023-04-21T10:29:57.239Z,22.10
2023-04-21T10:32:23.746Z,22.18
2023-04-21T10:34:50.131Z,22.09
2023-04-21T10:37:16.467Z,22.09
2023-04-21T10:39:43.851Z,22.00
2023-04-21T10:42:10.214Z,22.04
2023-04-21T10:44:36.562Z,22.12
2023-04-21T10:47:02.918Z,22.03
2023-04-21T10:49:29.346Z,22.11
2023-04-21T10:51:55.768Z,22.16
2023-04-21T10:54:22.304Z,22.14
2023-04-21T10:56:48.720Z,22.13
2023-04-21T10:59:15.104Z,22.12
2023-04-21T11:01:41.595Z,22.11
2023-04-21T11:04:08.407Z,22.15
2023-04-21T11:06:34.843Z,22.11
2023-04-21T11:09:01.207Z,22.14
2023-04-21T11:11:27.562Z,22.13
2023-04-21T11:13:53.938Z,22.12
2023-04-21T11:16:20.293Z,22.12
2023-04-21T11:18:46.670Z,22.16
2023-04-21T11:21:13.059Z,22.10
2023-04-21T11:23:39.466Z,22.06
2023-04-21T11:26:05.770Z,22.14
2023-04-21T11:28:32.157Z,22.11
2023-04-21T11:30:58.563Z,22.11
2023-04-21T11:33:24.979Z,22.12
2023-04-21T11:35:51.357Z,22.20
2023-04-21T11:38:17.914Z,22.20
2023-04-21T11:40:44.335Z,22.14
2023-04-21T11:43:10.690Z,22.19
2023-04-21T11:45:37.020Z,22.25
2023-04-21T11:48:03.389Z,22.30
2023-04-21T11:50:29.860Z,22.33
2023-04-21T11:52:56.239Z,22.30
2023-04-21T11:55:22.538Z,22.28
2023-04-21T11:57:48.848Z,22.32
2023-04-21T12:00:15.150Z,22.34
2023-04-21T12:02:41.547Z,22.47
2023-04-21T12:05:08.317Z,22.44
2023-04-21T12:07:34.805Z,22.39
2023-04-21T12:10:01.367Z,22.43
2023-04-21T12:12:27.797Z,22.42
2023-04-21T12:14:54.152Z,22.44
2023-04-21T12:17:20.522Z,22.37
2023-04-21T12:19:46.840Z,22.28
2023-04-21T12:22:13.152Z,22.33
2023-04-21T12:24:39.468Z,22.21
2023-04-21T12:27:05.849Z,22.30
2023-04-21T12:29:32.180Z,22.33
2023-04-21T12:31:58.536Z,22.34
2023-04-21T12:34:24.896Z,22.48
2023-04-21T12:36:51.213Z,22.38
2023-04-21T12:39:17.533Z,22.43
2023-04-21T12:41:43.884Z,22.48
2023-04-21T12:44:10.206Z,22.23
2023-04-21T12:46:36.528Z,22.26
2023-04-21T12:49:02.888Z,22.28
2023-04-21T12:51:29.253Z,22.24
2023-04-21T12:53:55.629Z,22.29
2023-04-21T12:56:21.975Z,22.23
2023-04-21T12:58:48.314Z,22.23
2023-04-21T13:01:14.715Z,22.37
2023-04-21T13:03:41.298Z,22.49
2023-04-21T13:06:07.768Z,22.36
2023-04-21T13:08:34.062Z,22.34
2023-04-21T13:11:00.400Z,22.39
2023-04-21T13:13:26.787Z,22.50
2023-04-21T13:15:53.112Z,22.40
2023-04-21T13:18:19.447Z,22.40
2023-04-21T13:20:45.791Z,22.41
2023-04-21T13:23:12.128Z,22.46
2023-04-21T13:25:38.511Z,22.47
2023-04-21T13:28:04.853Z,22.53
2023-04-21T13:30:31.217Z,22.41
2023-04-21T13:32:57.624Z,22.48
2023-04-21T13:35:24.012Z,22.54
2023-04-21T13:37:50.329Z,22.53
2023-04-21T13:40:16.661Z,22.48
2023-04-21T13:42:43.022Z,22.45
2023-04-21T13:45:09.354Z,22.56
2023-04-21T13:47:35.855Z,22.41
2023-04-21T13:50:02.279Z,22.47
2023-04-21T13:52:28.682Z,22.48
2023-04-21T13:54:55.003Z,22.45
2023-04-21T13:57:21.395Z,22.43
2023-04-21T13:59:47.732Z,22.43
2023-04-21T14:02:14.197Z,22.43
2023-04-21T14:04:40.788Z,22.49
2023-04-21T14:07:07.434Z,22.47
2023-04-21T14:09:34.034Z,22.53
2023-04-21T14:12:00.648Z,22.38
2023-04-21T14:14:37.748Z,22.40
2023-04-21T14:17:04.913Z,22.46
2023-04-21T14:19:31.478Z,22.47
2023-04-21T14:21:58.173Z,22.47
2023-04-21T14:24:24.560Z,22.53
2023-04-21T14:26:50.926Z,22.42
2023-04-21T14:29:17.294Z,22.37
2023-04-21T14:31:43.754Z,22.41
2023-04-21T14:34:10.202Z,22.43
2023-04-21T14:36:36.740Z,22.40
2023-04-21T14:39:04.241Z,22.45
2023-04-21T14:41:30.610Z,22.41
2023-04-21T14:43:56.994Z,22.46
2023-04-21T14:46:23.379Z,22.40
2023-04-21T14:48:49.782Z,22.46
2023-04-21T14:51:16.130Z,22.54
2023-04-21T14:53:42.504Z,22.45
2023-04-21T14:56:08.943Z,22.44
2023-04-21T14:58:35.352Z,22.33
2023-04-21T15:01:01.750Z,22.38
2023-04-21T15:03:28.218Z,22.39
2023-04-21T15:05:54.673Z,22.25
2023-04-21T15:08:20.977Z,22.37
2023-04-21T15:10:47.322Z,22.47
2023-04-21T15:13:13.712Z,22.49
2023-04-21T15:15:40.117Z,22.44
2023-04-21T15:18:06.567Z,22.39
2023-04-21T15:20:43.908Z,22.26
2023-04-21T15:23:11.817Z,22.36
2023-04-21T15:25:39.754Z,22.26
2023-04-21T15:28:06.381Z,22.29
2023-04-21T15:30:32.723Z,22.37
2023-04-21T15:32:59.067Z,22.28
2023-04-21T15:35:25.535Z,22.22
2023-04-21T15:37:51.944Z,22.30
2023-04-21T15:40:18.394Z,22.29
2023-04-21T15:42:44.792Z,22.30
2023-04-21T15:45:11.132Z,22.29
2023-04-21T15:47:37.577Z,22.22
2023-04-21T15:50:04.000Z,22.21
2023-04-21T15:52:30.385Z,22.23
2023-04-21T15:54:56.694Z,22.26
2023-04-21T15:57:23.057Z,22.25
2023-04-21T15:59:49.430Z,22.35
2023-04-21T16:02:15.961Z,22.30
2023-04-21T16:04:42.845Z,22.31
2023-04-21T16:07:09.786Z,22.33
2023-04-21T16:09:36.213Z,22.30
2023-04-21T16:12:02.703Z,22.28
2023-04-21T16:14:36.196Z,22.30
2023-04-21T16:17:09.428Z,22.24
2023-04-21T16:19:35.821Z,22.32
2023-04-21T16:22:02.150Z,22.21
2023-04-21T16:24:28.657Z,22.32
2023-04-21T16:26:55.106Z,22.25
2023-04-21T16:29:21.469Z,22.31
2023-04-21T16:31:47.885Z,22.20
2023-04-21T16:34:14.245Z,22.16
2023-04-21T16:36:40.568Z,22.16
2023-04-21T16:39:06.911Z,22.19
2023-04-21T16:41:33.240Z,22.25
2023-04-21T16:43:59.627Z,22.14
2023-04-21T16:46:26.043Z,22.17
2023-04-21T16:48:52.486Z,22.19
2023-04-21T16:51:18.992Z,22.18
2023-04-21T16:53:45.402Z,22.23
2023-04-21T16:56:11.763Z,22.23
2023-04-21T16:58:38.119Z,22.26
2023-04-21T17:01:04.564Z,22.32
2023-04-21T17:03:31.096Z,22.23
2023-04-21T17:05:57.760Z,22.33
2023-04-21T17:08:24.060Z,22.24
2023-04-21T17:10:50.422Z,22.33
2023-04-21T17:13:16.739Z,22.23
2023-04-21T17:15:43.123Z,22.25
2023-04-21T17:18:09.487Z,22.33
2023-04-21T17:20:35.882Z,22.25
2023-04-21T17:23:02.170Z,22.22
2023-04-21T17:25:28.469Z,22.29
2023-04-21T17:27:54.821Z,22.25
2023-04-21T17:30:21.208Z,22.32
2023-04-21T17:32:47.548Z,22.26
2023-04-21T17:35:14.045Z,22.28
2023-04-21T17:37:40.371Z,22.24
2023-04-21T17:40:06.678Z,22.20
2023-04-21T17:42:33.059Z,22.22
2023-04-21T17:44:59.417Z,22.25
2023-04-21T17:47:25.820Z,22.27
2023-04-21T17:49:52.160Z,22.33
2023-04-21T17:52:18.550Z,22.36
2023-04-21T17:54:44.939Z,22.28
2023-04-21T17:57:11.296Z,22.31
2023-04-21T17:59:37.637Z,22.25
2023-04-21T18:02:04.156Z,22.23
2023-04-21T18:04:30.881Z,22.22
2023-04-21T18:06:57.304Z,22.25
2023-04-21T18:09:23.638Z,22.31
2023-04-21T18:11:50.017Z,22.22
2023-04-21T18:14:16.800Z,22.27
2023-04-21T18:16:43.293Z,22.29
2023-04-21T18:19:09.627Z,22.22
2023-04-21T18:21:35.996Z,22.17
2023-04-21T18:24:02.368Z,22.20
2023-04-21T18:26:28.722Z,22.19
2023-04-21T18:28:55.104Z,22.25
2023-04-21T18:31:21.466Z,22.23
2023-04-21T18:33:47.808Z,22.17
2023-04-21T18:36:14.184Z,22.18
2023-04-21T18:38:40.554Z,22.22
2023-04-21T18:41:06.853Z,22.23
2023-04-21T18:43:33.188Z,22.26
2023-04-21T18:45:59.544Z,22.16
2023-04-21T18:48:25.968Z,22.20
2023-04-21T18:50:52.370Z,22.17
2023-04-21T18:53:18.677Z,22.22
2023-04-21T18:55:45.123Z,22.20
2023-04-21T18:58:11.473Z,22.23
2023-04-21T19:00:38.041Z,22.23
2023-04-21T19:03:04.772Z,22.15
2023-04-21T19:05:31.767Z,22.21
2023-04-21T19:07:58.279Z,22.16
2023-04-21T19:10:24.679Z,22.19
2023-04-21T19:12:51.029Z,22.18
2023-04-21T19:15:17.518Z,22.18
2023-04-21T19:17:43.914Z,22.11
2023-04-21T19:20:10.322Z,22.20
2023-04-21T19:22:36.938Z,22.15
2023-04-21T19:25:03.276Z,22.15
2023-04-21T19:27:29.570Z,22.19
2023-04-21T19:29:55.864Z,22.16
2023-04-21T19:32:22.350Z,22.16
2023-04-21T19:34:48.778Z,22.20
2023-04-21T19:37:15.143Z,22.14
2023-04-21T19:39:41.544Z,22.16
2023-04-21T19:42:07.902Z,22.14
2023-04-21T19:44:34.224Z,22.16
2023-04-21T19:47:00.544Z,22.17
2023-04-21T19:49:26.875Z,22.21
2023-04-21T19:51:53.193Z,22.14
2023-04-21T19:54:19.571Z,22.19
2023-04-21T19:56:45.917Z,22.12
2023-04-21T19:59:12.270Z,22.13
2023-04-21T20:01:38.705Z,22.10
2023-04-21T20:04:06.175Z,22.15
2023-04-21T20:06:33.168Z,22.14
2023-04-21T20:08:59.542Z,22.11
2023-04-21T20:11:28.277Z,22.14
2023-04-21T20:13:55.366Z,22.10
2023-04-21T20:16:21.727Z,22.12
2023-04-21T20:18:48.190Z,22.11
2023-04-21T20:21:14.545Z,22.15
2023-04-21T20:23:40.925Z,22.10
2023-04-21T20:26:07.241Z,22.07
2023-04-21T20:28:33.619Z,22.08
2023-04-21T20:31:00.102Z,22.08
2023-04-21T20:33:26.576Z,22.12
2023-04-21T20:35:52.992Z,22.04
2023-04-21T20:38:19.324Z,22.03
2023-04-21T20:40:45.648Z,22.04
2023-04-21T20:43:12.010Z,22.02
2023-04-21T20:45:38.337Z,22.00
2023-04-21T20:48:04.690Z,22.02
2023-04-21T20:50:31.115Z,21.99
2023-04-21T20:52:57.488Z,21.99
2023-04-21T20:55:23.803Z,22.03
2023-04-21T20:57:50.104Z,22.02
2023-04-21T21:00:16.491Z,22.01
2023-04-21T21:02:42.944Z,22.05
2023-04-21T21:05:09.434Z,21.98
2023-04-21T21:07:35.819Z,22.02
2023-04-21T21:10:02.192Z,21.99
2023-04-21T21:12:28.584Z,22.03
2023-04-21T21:14:54.891Z,22.06
2023-04-21T21:17:21.213Z,21.97
2023-04-21T21:19:47.593Z,22.07
2023-04-21T21:22:13.945Z,22.11
2023-04-21T21:24:40.260Z,22.01
2023-04-21T21:27:06.723Z,21.93
2023-04-21T21:29:33.096Z,21.97
2023-04-21T21:31:59.469Z,21.99
2023-04-21T21:34:25.867Z,21.96
2023-04-21T21:36:52.186Z,21.97
2023-04-21T21:39:18.492Z,21.93
2023-04-21T21:41:44.841Z,21.95
2023-04-21T21:44:11.195Z,21.97
2023-04-21T21:46:37.580Z,21.96
2023-04-21T21:49:04.068Z,21.98
2023-04-21T21:51:30.391Z,21.94
2023-04-21T21:53:56.702Z,21.96
2023-04-21T21:56:23.052Z,21.95
2023-04-21T21:58:49.439Z,21.99
2023-04-21T22:01:15.888Z,21.95
2023-04-21T22:03:42.395Z,21.90
2023-04-21T22:06:08.942Z,21.90
2023-04-21T22:08:35.294Z,21.94
2023-04-21T22:11:01.619Z,22.01
2023-04-21T22:13:27.988Z,21.93
2023-04-21T22:15:54.359Z,21.90
2023-04-21T22:18:20.743Z,21.90
2023-04-21T22:20:47.122Z,21.97
2023-04-21T22:23:13.473Z,21.97
2023-04-21T22:25:39.852Z,21.95
2023-04-21T22:28:06.166Z,21.96
2023-04-21T22:30:32.535Z,21.97
2023-04-21T22:32:58.986Z,21.93
2023-04-21T22:35:25.362Z,21.94
2023-04-21T22:37:51.667Z,21.94
2023-04-21T22:40:18.031Z,21.91
2023-04-21T22:42:44.394Z,21.96
2023-04-21T22:45:10.746Z,21.94
2023-04-21T22:47:37.092Z,21.92
2023-04-21T22:50:03.444Z,21.91
2023-04-21T22:52:29.832Z,21.96
2023-04-21T22:54:56.130Z,21.97
2023-04-21T22:57:22.502Z,22.01
2023-04-21T22:59:48.847Z,21.97
2023-04-21T23:02:15.298Z,21.93
2023-04-21T23:04:41.735Z,22.01
2023-04-21T23:07:08.097Z,22.01
2023-04-21T23:09:34.463Z,21.96
2023-04-21T23:12:00.832Z,22.03
2023-04-21T23:14:27.163Z,21.91
2023-04-21T23:16:53.607Z,21.93
2023-04-21T23:19:19.968Z,21.91
2023-04-21T23:21:46.269Z,21.97
2023-04-21T23:24:12.604Z,22.06
2023-04-21T23:26:38.975Z,22.03
2023-04-21T23:29:05.344Z,21.96
2023-04-21T23:31:31.723Z,21.96
2023-04-21T23:33:58.088Z,21.95
2023-04-21T23:36:24.390Z,22.00
2023-04-21T23:38:50.776Z,21.92
2023-04-21T23:41:17.091Z,21.88
2023-04-21T23:43:43.440Z,21.93
2023-04-21T23:46:09.785Z,21.94
2023-04-21T23:48:36.220Z,21.98
2023-04-21T23:51:02.658Z,21.97
2023-04-21T23:53:29.039Z,22.00
2023-04-21T23:55:55.357Z,21.94
2023-04-21T23:58:21.688Z,22.02
